Time;durP1;ratioP1;P1;durP2;ratioP2;P2;SDS_P1;SDS_P2;PMS_P1;PMS_P2;Temp;Humidity;BMP_temperature;BMP_pressure;BME280_temperature;BME280_humidity;BME280_pressure;Samples;Min_cycle;Max_cycle;Signal;HPM_P1;HPM_P2
2022/08/18 00:02:06;;;;;;;12.80;5.57;;;;;;;25.56;42.04;99685.00;5086171;28;20066;-69
2022/08/18 00:04:35;;;;;;;8.05;4.90;;;;;;;25.60;41.96;99683.50;5080069;28;20093;-71
2022/08/18 00:07:01;;;;;;;15.05;5.72;;;;;;;25.59;42.04;99684.53;5066913;28;20070;-71
2022/08/18 00:09:26;;;;;;;10.93;5.90;;;;;;;25.59;41.87;99693.53;5067028;28;20016;-73
2022/08/18 00:11:52;;;;;;;11.70;5.65;;;;;;;25.61;42.02;99696.00;5069787;28;20044;-73
2022/08/18 00:14:20;;;;;;;16.20;6.15;;;;;;;25.59;42.00;99690.81;5073624;28;20226;-72
2022/08/18 00:16:46;;;;;;;17.98;5.53;;;;;;;25.58;42.08;99697.28;5084602;28;20013;-72
2022/08/18 00:19:11;;;;;;;13.15;5.05;;;;;;;25.62;41.92;99702.28;5073006;28;20027;-69
2022/08/18 00:21:37;;;;;;;14.82;5.78;;;;;;;25.61;41.97;99712.25;5084180;28;20020;-73
2022/08/18 00:24:03;;;;;;;12.80;5.40;;;;;;;25.62;41.95;99715.81;5085408;28;20028;-71
2022/08/18 00:26:28;;;;;;;10.73;5.25;;;;;;;25.61;42.18;99706.03;5066823;28;20032;-71
2022/08/18 00:28:55;;;;;;;12.18;5.82;;;;;;;25.59;42.12;99714.34;5067402;28;20016;-72
2022/08/18 00:31:20;;;;;;;9.98;6.05;;;;;;;25.55;42.04;99705.81;5089377;28;20024;-71
2022/08/18 00:33:46;;;;;;;11.93;5.25;;;;;;;25.56;42.28;99702.06;5084831;28;20024;-69
2022/08/18 00:36:12;;;;;;;10.60;5.45;;;;;;;25.57;42.16;99703.75;5080723;28;20079;-74
2022/08/18 00:38:38;;;;;;;12.75;5.80;;;;;;;25.56;42.08;99696.66;5070517;28;20241;-71
2022/08/18 00:41:05;;;;;;;13.75;6.50;;;;;;;25.58;42.31;99696.47;5077664;28;20056;-72
2022/08/18 00:43:38;;;;;;;13.18;5.93;;;;;;;25.58;42.08;99691.84;5077901;28;20016;-72
2022/08/18 00:46:12;;;;;;;13.07;5.47;;;;;;;25.54;41.97;99703.34;5090293;28;20021;-74
2022/08/18 00:48:37;;;;;;;13.68;5.40;;;;;;;25.53;42.31;99701.69;5090363;28;20020;-68
2022/08/18 00:51:10;;;;;;;12.45;5.70;;;;;;;25.54;42.25;99703.34;5090417;28;20153;-70
2022/08/18 00:53:44;;;;;;;14.80;6.88;;;;;;;25.53;42.15;99705.22;5090038;28;20024;-73
2022/08/18 00:56:21;;;;;;;13.85;5.68;;;;;;;25.52;42.18;99708.16;5090221;28;20195;-74
2022/08/18 00:59:00;;;;;;;15.02;6.57;;;;;;;25.50;42.13;99721.91;5090145;28;20212;-70
2022/08/18 01:01:29;;;;;;;8.65;5.70;;;;;;;25.50;42.05;99721.06;5083506;28;20218;-70
2022/08/18 01:04:00;;;;;;;10.45;5.00;;;;;;;25.48;42.20;99723.16;5070076;28;20094;-71
2022/08/18 01:06:43;;;;;;;13.25;5.32;;;;;;;25.44;42.39;99720.06;5069884;28;20029;-71
2022/08/18 01:09:10;;;;;;;10.43;6.00;;;;;;;25.40;42.53;99716.06;5069803;28;20037;-69
2022/08/18 01:11:37;;;;;;;8.95;5.43;;;;;;;25.34;42.53;99711.53;5078809;28;20141;-72
2022/08/18 01:14:05;;;;;;;9.60;5.35;;;;;;;25.28;42.48;99708.63;5089727;28;20029;-70
2022/08/18 01:22:20;;;;;;;11.02;5.70;;;;;;;25.27;42.53;99693.41;5077640;28;20074;-74
2022/08/18 01:27:30;;;;;;;15.32;5.47;;;;;;;25.21;42.60;99699.69;5089584;28;20069;-72
2022/08/18 01:29:57;;;;;;;14.63;5.70;;;;;;;25.20;42.77;99700.75;5089560;28;20200;-71
2022/08/18 01:32:23;;;;;;;15.55;4.97;;;;;;;25.16;43.03;99707.63;5088684;28;20024;-69
2022/08/18 01:34:51;;;;;;;15.45;6.05;;;;;;;25.10;43.18;99697.63;5070546;28;20119;-72
2022/08/18 01:37:20;;;;;;;9.45;5.15;;;;;;;25.06;43.17;99707.25;5070772;28;20051;-73
2022/08/18 01:39:46;;;;;;;8.40;5.35;;;;;;;24.99;43.30;99705.38;5069326;28;20074;-71
2022/08/18 01:42:15;;;;;;;10.88;6.05;;;;;;;24.96;43.44;99702.25;5068570;28;20025;-71
2022/08/18 01:44:42;;;;;;;8.07;5.20;;;;;;;24.94;43.27;99709.75;5085977;28;20083;-68
2022/08/18 01:47:09;;;;;;;9.98;5.85;;;;;;;24.95;43.53;99712.25;5089189;28;20089;-70
2022/08/18 01:49:36;;;;;;;17.55;5.43;;;;;;;24.97;43.67;99710.16;5089005;28;20065;-70
2022/08/18 01:52:03;;;;;;;16.88;7.00;;;;;;;24.99;43.71;99713.50;5071072;28;20028;-72
2022/08/18 01:54:29;;;;;;;12.15;5.75;;;;;;;25.02;43.87;99711.41;5068192;28;20021;-72
2022/08/18 01:56:54;;;;;;;16.58;5.60;;;;;;;25.01;44.05;99715.16;5068990;28;20090;-72
2022/08/18 01:59:20;;;;;;;12.13;5.80;;;;;;;25.03;43.72;99713.88;5068990;28;20033;-71
2022/08/18 02:01:46;;;;;;;17.90;6.60;;;;;;;25.03;43.84;99716.59;5068944;28;20012;-73
2022/08/18 02:04:14;;;;;;;10.48;6.35;;;;;;;25.03;43.56;99722.00;5068838;28;20025;-73
2022/08/18 02:06:40;;;;;;;13.88;5.90;;;;;;;24.99;43.77;99720.78;5068769;28;20024;-70
2022/08/18 02:09:05;;;;;;;8.10;5.85;;;;;;;24.97;44.00;99712.88;5068662;28;20119;-73
2022/08/18 02:11:31;;;;;;;11.15;6.32;;;;;;;24.96;44.13;99719.31;5078322;28;20087;-72
2022/08/18 02:13:56;;;;;;;15.18;5.45;;;;;;;24.94;44.00;99732.22;5088590;28;20044;-69
2022/08/18 02:16:22;;;;;;;11.73;5.40;;;;;;;24.92;44.23;99734.34;5088767;28;20197;-72
2022/08/18 02:18:47;;;;;;;15.45;6.25;;;;;;;24.84;44.16;99737.25;5088515;28;20097;-71
2022/08/18 02:21:16;;;;;;;13.05;6.32;;;;;;;24.84;44.44;99731.84;5088607;28;20032;-72
2022/08/18 02:23:43;;;;;;;10.23;6.45;;;;;;;24.86;44.43;99737.03;5088488;28;20027;-73
2022/08/18 02:26:12;;;;;;;8.18;6.30;;;;;;;24.88;44.06;99738.50;5088528;28;20028;-71
2022/08/18 02:28:38;;;;;;;9.80;5.95;;;;;;;24.83;44.27;99731.00;5088350;28;20039;-73
2022/08/18 02:31:06;;;;;;;10.68;6.50;;;;;;;24.83;44.34;99741.00;5088464;28;20028;-71
2022/08/18 02:33:32;;;;;;;10.25;6.40;;;;;;;24.82;44.57;99756.41;5088314;28;20027;-74
2022/08/18 02:35:58;;;;;;;10.63;6.35;;;;;;;24.82;44.51;99752.84;5088400;28;20194;-73
2022/08/18 02:38:24;;;;;;;10.88;5.55;;;;;;;24.87;44.38;99755.78;5088156;28;20028;-71
2022/08/18 02:40:58;;;;;;;10.82;6.43;;;;;;;24.87;44.68;99750.38;5088151;28;20037;-72
2022/08/18 02:43:24;;;;;;;10.85;6.38;;;;;;;24.84;44.59;99748.06;5088064;28;20031;-71
2022/08/18 02:45:50;;;;;;;19.88;6.50;;;;;;;24.81;44.62;99743.06;5088216;28;20028;-74
2022/08/18 02:48:18;;;;;;;11.70;6.30;;;;;;;24.78;45.08;99762.44;5088043;28;20016;-73
2022/08/18 02:50:45;;;;;;;14.48;7.00;;;;;;;24.82;44.91;99764.53;5088076;28;20016;-71
2022/08/18 02:53:16;;;;;;;15.20;7.53;;;;;;;24.87;45.04;99754.94;5087945;28;20027;-74
2022/08/18 02:55:42;;;;;;;11.65;6.70;;;;;;;24.89;44.67;99747.44;5087949;28;20204;-74
2022/08/18 02:58:08;;;;;;;13.02;6.68;;;;;;;24.90;44.83;99754.50;5087897;28;20044;-73
2022/08/18 03:00:33;;;;;;;11.35;7.05;;;;;;;24.89;44.73;99761.81;5087871;28;20032;-72
2022/08/18 03:02:59;;;;;;;15.40;7.32;;;;;;;24.90;44.60;99754.50;5087922;28;20016;-72
2022/08/18 03:05:27;;;;;;;12.93;7.80;;;;;;;24.92;44.90;99758.69;5087798;28;20020;-73
2022/08/18 03:07:54;;;;;;;16.63;7.30;;;;;;;24.91;44.94;99759.72;5087466;28;20059;-71
2022/08/18 03:10:19;;;;;;;16.80;7.30;;;;;;;24.94;44.72;99759.28;5087667;28;20079;-71
2022/08/18 03:12:45;;;;;;;13.07;7.15;;;;;;;25.02;44.26;99757.41;5087634;28;20039;-70
2022/08/18 03:15:11;;;;;;;10.45;7.05;;;;;;;25.05;44.36;99754.31;5087553;28;20059;-73
2022/08/18 03:17:37;;;;;;;13.57;6.75;;;;;;;25.06;44.34;99740.53;5087607;28;20025;-73
2022/08/18 03:20:03;;;;;;;13.43;7.80;;;;;;;25.06;44.19;99743.25;5087533;28;20031;-71
2022/08/18 03:22:29;;;;;;;15.35;9.73;;;;;;;25.02;44.07;99749.31;5087675;28;20021;-73
2022/08/18 03:24:56;;;;;;;13.07;7.97;;;;;;;24.96;44.28;99751.78;5087575;28;20043;-73
2022/08/18 03:27:21;;;;;;;20.13;10.45;;;;;;;24.97;44.34;99741.81;5087384;28;20012;-72
2022/08/18 03:29:46;;;;;;;18.13;9.07;;;;;;;24.96;44.03;99746.38;5087372;28;20088;-71
2022/08/18 03:32:12;;;;;;;19.35;10.38;;;;;;;24.92;44.36;99747.88;5087334;28;20024;-72
2022/08/18 03:34:37;;;;;;;17.73;10.40;;;;;;;24.87;44.31;99750.38;5085960;28;20044;-71
2022/08/18 03:37:04;;;;;;;21.05;10.63;;;;;;;24.86;44.33;99746.00;5079138;28;20268;-72
2022/08/18 03:39:29;;;;;;;16.40;10.38;;;;;;;24.87;44.47;99744.09;5087434;28;20025;-72
2022/08/18 03:41:56;;;;;;;13.77;10.13;;;;;;;24.91;44.16;99751.63;5087499;28;20151;-71
2022/08/18 03:44:23;;;;;;;19.75;11.48;;;;;;;24.95;44.03;99736.59;5077255;28;20154;-72
2022/08/18 03:46:50;;;;;;;18.38;11.88;;;;;;;25.03;44.19;99748.25;5080463;28;20032;-73
2022/08/18 03:49:16;;;;;;;19.70;11.73;;;;;;;25.08;43.87;99734.91;5077643;28;20048;-72
2022/08/18 03:51:45;;;;;;;21.77;13.98;;;;;;;25.11;44.06;99748.03;5067278;28;20037;-73
2022/08/18 03:54:12;;;;;;;25.27;16.38;;;;;;;25.14;44.03;99742.19;5077406;28;20035;-73
2022/08/18 03:56:38;;;;;;;20.50;14.45;;;;;;;25.16;43.98;99750.94;5067580;28;20161;-72
2022/08/18 03:59:24;;;;;;;18.77;14.00;;;;;;;25.20;43.57;99752.19;5067147;28;20089;-72
2022/08/18 04:01:52;;;;;;;19.63;15.05;;;;;;;25.25;43.81;99744.25;5067151;28;20028;-72
2022/08/18 04:04:23;;;;;;;23.55;16.83;;;;;;;25.27;43.71;99747.56;5076935;28;20238;-72
2022/08/18 04:06:55;;;;;;;26.38;20.08;;;;;;;25.29;43.50;99747.38;5083889;28;20036;-73
2022/08/18 04:09:23;;;;;;;27.85;18.30;;;;;;;25.31;43.84;99750.69;5071017;28;20028;-73
2022/08/18 04:11:49;;;;;;;30.80;23.50;;;;;;;25.33;43.46;99750.47;5071064;28;20039;-71
2022/08/18 04:14:17;;;;;;;29.10;20.92;;;;;;;25.35;43.67;99751.94;5076848;28;20020;-71
2022/08/18 04:16:44;;;;;;;28.38;22.23;;;;;;;25.36;43.68;99753.59;5090887;28;20052;-74
2022/08/18 04:19:12;;;;;;;37.88;28.10;;;;;;;25.39;43.71;99750.47;5087150;28;20093;-70
2022/08/18 04:21:40;;;;;;;39.70;30.20;;;;;;;25.42;43.65;99750.06;5076804;28;20024;-72
2022/08/18 04:24:07;;;;;;;37.83;28.58;;;;;;;25.45;43.66;99746.09;5074846;28;20165;-71
2022/08/18 04:26:38;;;;;;;41.00;31.67;;;;;;;25.54;43.54;99747.50;5085587;28;20028;-73
2022/08/18 04:29:05;;;;;;;50.90;39.72;;;;;;;25.59;43.37;99747.72;5079903;28;20032;-72
2022/08/18 04:31:31;;;;;;;54.30;43.50;;;;;;;25.59;43.26;99753.13;5070725;28;20029;-72
2022/08/18 04:33:58;;;;;;;52.75;40.92;;;;;;;25.65;43.21;99748.72;5070440;28;20198;-75
2022/08/18 04:36:25;;;;;;;61.92;46.85;;;;;;;25.71;43.17;99756.00;5070439;28;20021;-75
2022/08/18 04:38:51;;;;;;;51.88;41.40;;;;;;;25.73;42.96;99753.06;5070515;28;20217;-73
2022/08/18 04:41:17;;;;;;;57.67;43.90;;;;;;;25.76;43.06;99760.78;5071527;28;20020;-73
2022/08/18 04:43:43;;;;;;;71.38;56.30;;;;;;;25.82;43.06;99757.19;5083336;28;20059;-71
2022/08/18 04:46:08;;;;;;;77.15;59.17;;;;;;;25.86;42.84;99763.84;5085721;28;20024;-74
2022/08/18 04:48:37;;;;;;;97.88;75.68;;;;;;;25.87;42.80;99768.22;5090354;28;20032;-72
2022/08/18 04:51:08;;;;;;;67.63;54.38;;;;;;;25.89;42.76;99765.28;5089952;28;20032;-70
2022/08/18 04:53:44;;;;;;;80.03;70.55;;;;;;;25.90;42.61;99770.50;5073679;28;20052;-73
2022/08/18 04:56:27;;;;;;;91.65;71.75;;;;;;;25.91;42.49;99768.59;5073415;28;20024;-74
2022/08/18 04:59:01;;;;;;;89.80;73.63;;;;;;;25.98;42.45;99766.72;5090165;28;20074;-74
2022/08/18 05:01:29;;;;;;;86.85;71.97;;;;;;;26.20;41.96;99769.09;5086490;28;20024;-74
2022/08/18 05:03:57;;;;;;;101.47;83.47;;;;;;;26.44;41.35;99770.19;5069852;28;20016;-71
2022/08/18 05:06:25;;;;;;;102.75;77.75;;;;;;;26.64;40.86;99774.66;5070050;28;20032;-72
2022/08/18 05:08:53;;;;;;;101.00;80.63;;;;;;;26.76;40.66;99775.59;5069512;28;20064;-70
2022/08/18 05:11:20;;;;;;;96.97;79.13;;;;;;;26.82;40.49;99770.38;5075702;28;20031;-74
2022/08/18 05:13:47;;;;;;;105.75;83.45;;;;;;;26.87;40.35;99770.50;5085206;28;20305;-71
2022/08/18 05:16:13;;;;;;;103.90;83.70;;;;;;;26.95;40.37;99771.06;5072448;28;20033;-71
2022/08/18 05:18:39;;;;;;;99.28;75.70;;;;;;;27.01;40.21;99776.66;5069335;28;20031;-70
2022/08/18 05:21:07;;;;;;;96.80;77.78;;;;;;;27.07;39.98;99771.16;5071554;28;20017;-72
2022/08/18 05:23:33;;;;;;;92.72;77.55;;;;;;;27.14;39.96;99773.81;5089593;28;20021;-71
2022/08/18 05:26:02;;;;;;;94.88;75.28;;;;;;;27.23;39.83;99768.91;5083484;28;20040;-72
2022/08/18 05:28:28;;;;;;;87.80;75.25;;;;;;;27.28;39.88;99779.91;5069643;28;20025;-72
2022/08/18 05:30:54;;;;;;;84.88;70.78;;;;;;;27.30;39.98;99780.53;5070928;28;20028;-73
2022/08/18 05:33:20;;;;;;;91.80;73.50;;;;;;;27.37;40.00;99781.28;5073028;28;20035;-73
2022/08/18 05:35:50;;;;;;;90.50;73.78;;;;;;;27.51;39.63;99770.31;5082226;28;20032;-71
2022/08/18 05:38:45;;;;;;;93.95;75.55;;;;;;;27.58;39.69;99771.03;5089546;28;20083;-71
2022/08/18 05:41:19;;;;;;;87.28;73.07;;;;;;;27.71;39.13;99770.06;5072907;28;20059;-73
2022/08/18 05:43:45;;;;;;;94.00;75.78;;;;;;;27.78;39.06;99769.97;5078628;28;20024;-74
2022/08/18 05:46:11;;;;;;;97.28;79.68;;;;;;;27.81;38.72;99764.09;5089416;28;20035;-72
2022/08/18 05:48:37;;;;;;;103.50;80.35;;;;;;;27.87;38.99;99766.72;5089256;28;20024;-72
2022/08/18 05:51:27;;;;;;;93.00;77.50;;;;;;;27.92;38.49;99766.00;5075364;28;20017;-71
2022/08/18 05:56:45;;;;;;;95.50;77.15;;;;;;;27.96;38.42;99771.81;5070493;28;20039;-70
2022/08/18 05:59:16;;;;;;;91.07;76.75;;;;;;;27.93;38.43;99778.56;5072004;28;20261;-71
2022/08/18 06:01:44;;;;;;;;;;;;;;;27.80;38.98;99781.44;5088769;28;20241;-73
2022/08/18 06:04:12;;;;;;;100.38;81.05;;;;;;;27.67;39.18;99785.16;5088872;28;20101;-73
2022/08/18 06:06:39;;;;;;;95.90;81.82;;;;;;;27.54;39.26;99784.25;5088741;28;20312;-72
2022/08/18 06:09:27;;;;;;;93.32;79.85;;;;;;;27.50;39.61;99784.94;5073000;28;20358;-73
2022/08/18 06:12:07;;;;;;;100.43;80.95;;;;;;;27.46;39.58;99778.28;5072815;28;20036;-73
2022/08/18 06:14:36;;;;;;;103.00;83.10;;;;;;;27.44;39.54;99792.09;5068478;28;20145;-72
2022/08/18 06:17:07;;;;;;;101.35;79.72;;;;;;;27.38;39.55;99792.97;5068717;28;20032;-74
2022/08/18 06:19:35;;;;;;;92.10;79.38;;;;;;;27.34;39.51;99792.59;5070658;28;20094;-69
2022/08/18 06:22:15;;;;;;;97.70;77.00;;;;;;;27.35;39.56;99786.13;5069846;28;20029;-74
2022/08/18 06:25:00;;;;;;;92.43;75.25;;;;;;;27.36;39.96;99785.06;5074890;28;20040;-71
2022/08/18 06:27:54;;;;;;;102.38;77.45;;;;;;;27.40;39.53;99788.16;5088108;28;20034;-72
2022/08/18 06:30:26;;;;;;;94.00;75.57;;;;;;;27.40;39.50;99783.56;5079731;28;20185;-73
2022/08/18 06:33:16;;;;;;;101.00;79.97;;;;;;;27.42;39.80;99781.44;5076366;28;20089;-72
2022/08/18 06:35:50;;;;;;;113.93;89.25;;;;;;;27.40;39.58;99789.00;5085463;28;20047;-72
2022/08/18 06:38:39;;;;;;;119.40;93.72;;;;;;;27.40;39.71;99791.72;5068461;28;20028;-70
2022/08/18 06:41:18;;;;;;;104.20;84.57;;;;;;;27.30;40.05;99788.66;5067982;28;20127;-72
2022/08/18 06:44:16;;;;;;;102.70;83.93;;;;;;;27.30;39.64;99793.28;5077198;28;20020;-72
2022/08/18 06:46:53;;;;;;;111.82;80.95;;;;;;;27.33;39.93;99803.72;5056554;28;20225;-72
2022/08/18 06:49:36;;;;;;;89.68;70.35;;;;;;;27.36;39.91;99805.94;5068066;28;20024;-72
2022/08/18 06:52:25;;;;;;;87.00;63.15;;;;;;;27.37;39.50;99808.47;5067746;28;20052;-75
2022/08/18 06:54:52;;;;;;;79.93;60.05;;;;;;;27.33;39.44;99807.25;5067933;28;20028;-74
2022/08/18 06:57:25;;;;;;;85.68;53.38;;;;;;;27.30;39.56;99801.44;5067916;28;20090;-75
2022/08/18 07:00:16;;;;;;;65.45;43.38;;;;;;;27.26;39.30;99799.16;5067889;28;20128;-74
2022/08/18 07:02:57;;;;;;;70.18;42.22;;;;;;;27.24;39.39;99795.84;5067550;28;20029;-76
2022/08/18 07:05:26;;;;;;;52.78;33.03;;;;;;;27.25;39.03;99799.41;5067681;28;20041;-75
2022/08/18 07:08:31;;;;;;;46.72;32.97;;;;;;;27.25;39.08;99807.56;5067610;28;20045;-75
2022/08/18 07:11:13;;;;;;;46.42;27.42;;;;;;;27.25;38.96;99800.22;5073966;28;20044;-75
2022/08/18 07:13:43;;;;;;;40.85;23.73;;;;;;;27.25;38.37;99804.84;5087504;28;20024;-73
2022/08/18 07:16:34;;;;;;;39.13;24.15;;;;;;;27.22;38.44;99808.00;5087770;28;20058;-75
2022/08/18 07:19:11;;;;;;;33.50;22.40;;;;;;;27.21;38.67;99806.34;5083845;28;20285;-76
2022/08/18 07:21:39;;;;;;;34.63;22.10;;;;;;;27.24;38.57;99803.16;5087365;28;20027;-74
2022/08/18 07:24:12;;;;;;;34.58;25.33;;;;;;;27.29;38.68;99797.88;5083360;28;20029;-74
2022/08/18 07:26:56;;;;;;;33.58;20.70;;;;;;;27.36;38.62;99806.81;5083639;28;20028;-74
2022/08/18 07:29:21;;;;;;;35.83;21.48;;;;;;;27.41;38.50;99809.69;5067405;28;20269;-71
2022/08/18 07:31:53;;;;;;;34.17;20.23;;;;;;;27.45;38.84;99810.09;5067393;28;20052;-72
2022/08/18 07:34:36;;;;;;;36.88;19.45;;;;;;;27.46;38.47;99805.47;5067309;28;20024;-72
2022/08/18 07:37:29;;;;;;;29.50;17.67;;;;;;;27.48;38.38;99806.06;5067314;28;20036;-72
2022/08/18 07:39:58;;;;;;;28.33;18.52;;;;;;;27.47;38.39;99804.41;5066511;28;20225;-72
2022/08/18 07:42:33;;;;;;;35.97;17.35;;;;;;;27.50;38.57;99796.63;5067292;28;20158;-72
2022/08/18 07:45:41;;;;;;;19.75;14.45;;;;;;;27.55;38.66;99801.41;5087064;28;20020;-72
2022/08/18 07:48:19;;;;;;;20.33;13.15;;;;;;;27.58;38.61;99797.41;5087466;28;20040;-72
2022/08/18 07:51:23;;;;;;;20.77;12.30;;;;;;;27.61;38.45;99797.78;5087418;28;20033;-72
2022/08/18 07:53:56;;;;;;;21.85;13.82;;;;;;;27.63;38.41;99801.09;5087242;28;20034;-73
2022/08/18 07:56:44;;;;;;;24.40;16.58;;;;;;;27.68;38.53;99806.69;5087308;28;20095;-73
2022/08/18 07:59:12;;;;;;;24.55;13.02;;;;;;;27.69;38.12;99799.34;5087204;28;20237;-73
2022/08/18 08:01:48;;;;;;;24.73;13.60;;;;;;;27.70;38.07;99801.00;5087577;28;20217;-72
2022/08/18 08:04:32;;;;;;;23.42;14.75;;;;;;;27.70;38.42;99795.56;5087242;28;20100;-72
2022/08/18 08:07:10;;;;;;;16.95;11.23;;;;;;;27.69;37.88;99800.19;5087108;28;20029;-73
2022/08/18 08:09:55;;;;;;;47.90;14.18;;;;;;;27.60;37.82;99796.09;5087178;28;20020;-73
2022/08/18 08:12:42;;;;;;;21.83;10.63;;;;;;;27.59;38.00;99793.63;5086535;28;20058;-72
2022/08/18 08:15:38;;;;;;;19.75;9.77;;;;;;;27.60;37.88;99801.53;5086976;28;20050;-72
2022/08/18 08:18:11;;;;;;;19.55;10.88;;;;;;;27.61;38.00;99802.38;5087161;28;20115;-74
2022/08/18 08:21:04;;;;;;;24.30;10.68;;;;;;;27.63;37.73;99795.66;5086963;28;20036;-73
2022/08/18 08:23:48;;;;;;;24.75;10.82;;;;;;;27.67;37.83;99807.75;5079117;28;20021;-74
2022/08/18 08:26:23;;;;;;;36.47;10.35;;;;;;;27.71;37.68;99795.38;5066825;28;20211;-73
2022/08/18 08:29:17;;;;;;;39.70;8.80;;;;;;;27.74;37.98;99794.06;5068278;28;20100;-73
2022/08/18 08:31:57;;;;;;;27.13;7.78;;;;;;;27.74;37.70;99795.94;5066813;28;20041;-73
2022/08/18 08:34:50;;;;;;;16.55;6.22;;;;;;;27.76;37.69;99796.56;5069490;28;20181;-72
2022/08/18 08:37:28;;;;;;;11.60;7.38;;;;;;;27.75;37.16;99795.72;5070019;28;20125;-73
2022/08/18 08:39:59;;;;;;;25.05;7.15;;;;;;;27.78;37.63;99797.16;5067210;28;20024;-73
2022/08/18 08:42:48;;;;;;;36.90;8.57;;;;;;;27.78;37.77;99787.13;5068940;28;20025;-73
2022/08/18 08:45:25;;;;;;;24.08;7.82;;;;;;;27.81;37.76;99791.25;5079361;28;20084;-74
2022/08/18 08:48:03;;;;;;;59.20;9.68;;;;;;;27.83;37.90;99792.69;5066774;28;20029;-74
2022/08/18 08:50:40;;;;;;;18.67;8.40;;;;;;;27.85;37.74;99785.13;5066549;28;20017;-73
2022/08/18 08:53:16;;;;;;;38.72;8.38;;;;;;;27.85;37.94;99779.69;5084009;28;20198;-74
2022/08/18 08:55:47;;;;;;;17.40;5.60;;;;;;;27.88;37.75;99775.69;5106346;28;20108;-74
2022/08/18 08:58:25;;;;;;;10.73;5.72;;;;;;;27.89;37.92;99782.78;5090279;28;20060;-74
2022/08/18 09:00:52;;;;;;;18.70;4.60;;;;;;;27.89;37.21;99787.41;5090055;28;20188;-71
2022/08/18 09:03:45;;;;;;;13.52;4.65;;;;;;;27.89;37.10;99784.69;5082466;28;20084;-70
2022/08/18 09:06:41;;;;;;;12.50;4.22;;;;;;;27.88;37.07;99772.97;5075833;28;20126;-72
2022/08/18 09:09:32;;;;;;;6.28;3.42;;;;;;;27.88;36.59;99778.41;5078065;28;20060;-71
2022/08/18 09:12:07;;;;;;;8.70;4.70;;;;;;;27.87;36.17;99771.31;5078300;28;20071;-72
2022/08/18 09:15:17;;;;;;;7.13;2.80;;;;;;;27.85;35.89;99785.13;5078371;28;20112;-73
2022/08/18 09:17:49;;;;;;;9.75;3.67;;;;;;;27.78;35.69;99778.97;5075925;28;20020;-72
2022/08/18 09:20:34;;;;;;;10.98;2.75;;;;;;;27.77;35.67;99771.03;5078195;28;20032;-73
2022/08/18 09:23:17;;;;;;;5.70;2.80;;;;;;;27.77;35.81;99784.63;5070611;28;20071;-72
2022/08/18 09:25:42;;;;;;;7.57;3.15;;;;;;;27.80;35.83;99782.25;5076463;28;20089;-72
2022/08/18 09:28:10;;;;;;;9.30;3.80;;;;;;;27.82;35.67;99780.16;5074781;28;20028;-72
2022/08/18 09:31:01;;;;;;;9.88;3.17;;;;;;;27.85;35.78;99774.25;5077464;28;20039;-73
2022/08/18 09:33:44;;;;;;;12.45;3.28;;;;;;;27.87;35.69;99777.59;5081726;28;20031;-72
2022/08/18 10:52:11;;;;;;;7.88;2.67;;;;;;;26.62;34.63;99764.00;5184177;27;20227;-75
2022/08/18 10:54:47;;;;;;;6.20;2.80;;;;;;;26.70;35.02;99760.16;5151627;27;20035;-73
2022/08/18 10:57:27;;;;;;;7.15;2.58;;;;;;;26.77;35.19;99746.53;5145297;28;20088;-74
2022/08/18 11:00:01;;;;;;;5.18;3.15;;;;;;;26.87;35.33;99748.78;5143934;27;20038;-71
2022/08/18 11:03:07;;;;;;;9.93;2.88;;;;;;;26.97;35.04;99762.69;5145954;28;20251;-72
2022/08/18 11:05:33;;;;;;;6.88;3.08;;;;;;;27.05;34.84;99748.81;5144525;28;20027;-72
2022/08/18 11:08:03;;;;;;;9.90;2.67;;;;;;;27.13;34.37;99764.00;5145561;28;20259;-72
2022/08/18 11:10:49;;;;;;;8.68;2.42;;;;;;;27.15;33.28;99752.91;5144623;27;20099;-70
2022/08/18 11:13:49;;;;;;;11.15;2.72;;;;;;;27.20;33.07;99750.34;5142312;28;20035;-72
2022/08/18 11:16:20;;;;;;;10.70;3.63;;;;;;;27.24;32.36;99754.28;5144886;28;20031;-72
2022/08/18 11:18:48;;;;;;;3.78;1.75;;;;;;;27.28;31.90;99750.03;5145209;27;20019;-69
2022/08/18 11:21:36;;;;;;;10.77;2.47;;;;;;;27.31;31.68;99752.31;5140922;28;20030;-70
2022/08/18 11:24:07;;;;;;;6.80;2.28;;;;;;;27.34;31.69;99754.56;5125377;28;20028;-73
2022/08/18 11:26:38;;;;;;;7.78;2.90;;;;;;;27.36;31.88;99755.19;5139194;28;20163;-73
2022/08/18 11:29:20;;;;;;;;;;;;;;;27.33;32.66;99752.91;5145577;28;20027;-72
2022/08/18 11:31:48;;;;;;;7.85;2.42;;;;;;;27.39;32.29;99757.44;5143772;28;20058;-71
2022/08/18 11:34:20;;;;;;;10.30;2.78;;;;;;;27.40;32.17;99753.69;5144839;28;20015;-72
2022/08/18 11:36:58;;;;;;;6.35;3.08;;;;;;;27.40;30.89;99763.69;5140682;28;20064;-70
2022/08/18 11:39:24;;;;;;;8.60;2.40;;;;;;;27.42;30.95;99753.44;5131738;28;20027;-75
2022/08/18 11:41:50;;;;;;;9.73;2.28;;;;;;;27.42;31.37;99767.84;5124607;28;20024;-75
2022/08/18 11:44:23;;;;;;;5.30;1.95;;;;;;;27.42;30.70;99759.69;5138481;28;20261;-76
2022/08/18 11:46:54;;;;;;;8.82;2.20;;;;;;;27.40;30.44;99753.69;5144583;28;20027;-73
2022/08/18 11:49:29;;;;;;;6.88;2.08;;;;;;;27.40;30.30;99755.56;5140514;28;20090;-75
2022/08/18 11:51:58;;;;;;;2.20;1.80;;;;;;;27.40;30.33;99756.41;5144553;28;20125;-74
2022/08/18 11:54:36;;;;;;;6.03;2.40;;;;;;;27.41;29.87;99747.19;5136108;28;20023;-72
2022/08/18 11:57:28;;;;;;;12.13;2.17;;;;;;;27.43;29.93;99752.38;5144407;28;20030;-73
2022/08/18 11:59:55;;;;;;;9.32;2.05;;;;;;;27.44;29.81;99750.47;5140217;28;20019;-74
2022/08/18 12:02:24;;;;;;;4.45;1.90;;;;;;;27.45;29.95;99744.88;5136389;28;20015;-71
2022/08/18 12:05:02;;;;;;;4.63;2.00;;;;;;;27.47;30.55;99742.75;5126561;28;20172;-72
2022/08/18 12:07:34;;;;;;;5.70;2.20;;;;;;;27.48;31.14;99747.13;5131071;28;20068;-73
2022/08/18 12:10:22;;;;;;;6.63;2.38;;;;;;;27.49;29.58;99753.38;5130742;28;20036;-73
2022/08/18 12:12:52;;;;;;;3.05;1.42;;;;;;;27.52;29.69;99744.78;5118038;28;20022;-74
2022/08/18 12:15:18;;;;;;;7.18;1.90;;;;;;;27.54;29.93;99742.69;5126331;28;20024;-72
2022/08/18 12:17:45;;;;;;;5.88;1.80;;;;;;;27.52;29.80;99740.16;5130813;28;20232;-73
2022/08/18 12:20:13;;;;;;;8.95;2.10;;;;;;;27.52;29.43;99734.72;5125933;28;20019;-75
2022/08/18 12:22:42;;;;;;;6.95;1.50;;;;;;;27.54;29.67;99729.09;5130045;28;20019;-75
2022/08/18 12:25:13;;;;;;;9.55;2.53;;;;;;;27.54;29.35;99732.63;5130474;28;20095;-74
2022/08/18 12:27:39;;;;;;;8.52;2.00;;;;;;;27.56;29.35;99732.41;5130587;28;20209;-72
2022/08/18 12:30:06;;;;;;;8.07;2.53;;;;;;;27.58;29.29;99738.44;5130300;28;20058;-74
2022/08/18 12:32:34;;;;;;;5.45;1.83;;;;;;;27.58;29.14;99754.72;5130057;28;20023;-75
2022/08/18 12:35:01;;;;;;;4.85;1.50;;;;;;;27.57;28.72;99744.94;5125841;28;20091;-73
2022/08/18 12:37:27;;;;;;;6.53;2.97;;;;;;;27.57;28.34;99728.63;5123017;28;20094;-73
2022/08/18 12:39:54;;;;;;;3.13;1.83;;;;;;;27.58;28.25;99748.47;5129038;28;20050;-74
2022/08/18 12:42:20;;;;;;;5.00;1.42;;;;;;;27.58;28.38;99735.72;5130188;28;20020;-75
2022/08/18 12:44:46;;;;;;;2.25;1.60;;;;;;;27.59;28.25;99734.66;5125391;28;20023;-74
2022/08/18 12:47:15;;;;;;;7.78;2.00;;;;;;;27.59;28.21;99733.84;5125279;28;20081;-73
2022/08/18 12:49:42;;;;;;;6.63;1.92;;;;;;;27.58;28.09;99732.16;5129367;28;20027;-72
2022/08/18 12:52:08;;;;;;;4.82;1.90;;;;;;;27.59;28.17;99731.13;5129988;28;20050;-72
2022/08/18 12:54:34;;;;;;;5.85;2.08;;;;;;;27.59;28.06;99728.41;5121090;28;20145;-72
2022/08/18 12:57:02;;;;;;;9.90;2.15;;;;;;;27.57;28.43;99728.63;5121447;28;20095;-73
2022/08/18 12:59:28;;;;;;;7.13;2.15;;;;;;;27.56;28.37;99721.53;5125342;28;20038;-73
2022/08/18 13:01:54;;;;;;;12.55;1.85;;;;;;;27.58;28.41;99724.03;5115779;27;20032;-72
2022/08/18 13:04:19;;;;;;;10.77;2.53;;;;;;;27.59;28.47;99723.78;5115807;28;20023;-73
2022/08/18 13:06:56;;;;;;;5.63;1.70;;;;;;;27.61;28.68;99726.28;5124988;28;20104;-73
2022/08/18 13:09:22;;;;;;;8.80;1.90;;;;;;;27.62;29.15;99728.75;5129403;28;20023;-72
2022/08/18 13:11:49;;;;;;;8.77;2.47;;;;;;;27.63;29.03;99725.00;5125172;28;20012;-73
2022/08/18 13:14:15;;;;;;;7.65;1.85;;;;;;;27.67;29.02;99722.63;5126613;28;20143;-73
2022/08/18 13:16:43;;;;;;;7.22;2.17;;;;;;;27.67;29.37;99718.03;5108859;28;20023;-73